Tripoli, Iowa
Current Conditions -  °F | °C
As of 1:15 AM on Saturday 25 Oct 2014 (Local Time) from KOLZ Reporting Station
Moderate Fog Moderate Fog  
Wind Chill: 57°   Ceiling: 200
Heat Index: 57°   Visibility: 0mi
Dew Point: 57°   Wind: 6mph
Humidity: 100%   Direction: 280°W
Pressure: 29.96"   Gusts: NA
Location:  42.81°N, 92.26°W
Report Text: KOLZ 250615Z AUTO 28005KT M1/4SM FG OVC002 14/14 A2996 RMK AO2
Loading
Personal Weather Stations






























Interactive Weather Map
Tropical Storm Tracking
New forecast layout! Learn more

10-Day Weather Forecast

Advertisements
Track Severe Weather on mobile